createdAt,value
2019-02-08T00:00:32.563Z,0.00
2019-02-08T00:01:32.553Z,0.00
2019-02-08T00:02:32.548Z,0.00
2019-02-08T00:03:32.502Z,0.00
2019-02-08T00:04:32.484Z,0.00
2019-02-08T00:05:32.479Z,0.00
2019-02-08T00:06:32.460Z,0.00
2019-02-08T00:07:32.442Z,0.00
2019-02-08T00:08:32.412Z,0.00
2019-02-08T00:09:32.798Z,0.00
2019-02-08T00:10:32.364Z,0.00
2019-02-08T00:11:32.355Z,0.00
2019-02-08T00:12:32.342Z,0.00
2019-02-08T00:13:32.316Z,0.00
2019-02-08T00:14:32.298Z,0.00
2019-02-08T00:15:32.279Z,0.00
2019-02-08T00:16:32.260Z,0.00
2019-02-08T00:17:33.809Z,0.00
2019-02-08T00:18:33.195Z,0.00
2019-02-08T00:19:32.199Z,0.00
2019-02-08T00:20:32.185Z,0.00
2019-02-08T00:21:32.166Z,0.00
2019-02-08T00:22:32.142Z,0.00
2019-02-08T00:23:32.145Z,0.00
2019-02-08T00:24:32.104Z,0.00
2019-02-08T00:25:32.085Z,0.00
2019-02-08T00:26:32.590Z,0.00
2019-02-08T00:27:32.052Z,0.00
2019-02-08T00:28:32.028Z,0.00
2019-02-08T00:29:32.013Z,0.00
2019-02-08T00:30:31.995Z,0.00
2019-02-08T00:31:31.969Z,0.00
2019-02-08T00:32:31.963Z,0.00
2019-02-08T00:33:31.941Z,0.00
2019-02-08T00:34:31.913Z,0.00
2019-02-08T00:35:31.893Z,0.00
2019-02-08T00:36:31.891Z,0.00
2019-02-08T00:37:31.869Z,0.00
2019-02-08T00:38:31.848Z,0.00
2019-02-08T00:39:31.818Z,0.00
2019-02-08T00:40:31.799Z,0.00
2019-02-08T00:41:31.776Z,0.00
2019-02-08T00:42:31.761Z,0.00
2019-02-08T00:43:31.760Z,0.00
2019-02-08T00:44:31.720Z,0.00
2019-02-08T00:45:31.703Z,0.00
2019-02-08T00:46:31.680Z,0.00
2019-02-08T00:47:31.656Z,0.00
2019-02-08T00:48:31.644Z,0.00
2019-02-08T00:49:31.627Z,0.00
2019-02-08T00:50:31.606Z,0.00
2019-02-08T00:51:31.587Z,0.00
2019-02-08T00:52:31.566Z,0.00
2019-02-08T00:53:33.580Z,0.00
2019-02-08T00:54:31.538Z,0.00
2019-02-08T00:55:31.510Z,0.00
2019-02-08T00:56:31.492Z,0.00
2019-02-08T00:57:31.470Z,0.00
2019-02-08T00:58:31.451Z,0.00
2019-02-08T00:59:31.431Z,0.00
2019-02-08T01:00:31.413Z,0.00
2019-02-08T01:01:31.401Z,0.00
2019-02-08T01:02:31.376Z,0.00
2019-02-08T01:03:31.351Z,0.00
2019-02-08T01:04:31.340Z,0.00
2019-02-08T01:05:31.319Z,0.00
2019-02-08T01:06:31.302Z,0.00
2019-02-08T01:07:31.281Z,0.00
2019-02-08T01:08:31.274Z,0.00
2019-02-08T01:09:31.243Z,0.00
2019-02-08T01:10:31.221Z,0.00
2019-02-08T01:11:31.203Z,0.00
2019-02-08T01:12:31.189Z,0.00
2019-02-08T01:13:31.158Z,0.00
2019-02-08T01:14:31.146Z,0.00
2019-02-08T01:15:31.129Z,0.00
2019-02-08T01:16:31.109Z,0.00
2019-02-08T01:17:31.088Z,0.00
2019-02-08T01:18:31.071Z,0.00
2019-02-08T01:19:31.059Z,0.00
2019-02-08T01:20:31.030Z,0.00
2019-02-08T01:21:31.018Z,0.00
2019-02-08T01:22:30.993Z,0.00
2019-02-08T01:23:30.974Z,0.00
2019-02-08T01:24:30.952Z,0.00
2019-02-08T01:25:30.945Z,0.00
2019-02-08T01:26:30.917Z,0.00
2019-02-08T01:27:30.900Z,0.00
2019-02-08T01:28:30.882Z,0.00
2019-02-08T01:29:30.862Z,0.00
2019-02-08T01:30:30.841Z,0.00
2019-02-08T01:31:30.819Z,0.00
2019-02-08T01:32:30.800Z,0.00
2019-02-08T01:33:30.784Z,0.00
2019-02-08T01:34:30.764Z,0.00
2019-02-08T01:35:30.746Z,0.00
2019-02-08T01:36:30.724Z,0.00
2019-02-08T01:37:30.725Z,0.00
2019-02-08T01:38:30.686Z,0.00
2019-02-08T01:39:30.666Z,0.00
2019-02-08T01:40:30.656Z,0.00
2019-02-08T01:41:30.635Z,0.00
2019-02-08T01:42:30.622Z,0.00
2019-02-08T01:43:30.591Z,0.00
2019-02-08T01:44:30.570Z,0.00
2019-02-08T01:45:30.559Z,0.00
2019-02-08T01:46:30.540Z,0.00
2019-02-08T01:47:30.517Z,0.00
2019-02-08T01:48:30.501Z,0.00
2019-02-08T01:49:30.485Z,0.00
2019-02-08T01:50:30.463Z,0.00
2019-02-08T01:51:30.440Z,0.00
2019-02-08T01:52:30.422Z,0.00
2019-02-08T01:53:30.407Z,0.00
2019-02-08T01:54:30.389Z,0.00
2019-02-08T01:55:30.368Z,0.00
2019-02-08T01:56:30.342Z,0.00
2019-02-08T01:57:30.331Z,0.00
2019-02-08T01:58:30.320Z,0.00
2019-02-08T01:59:30.286Z,0.00
2019-02-08T02:00:30.279Z,0.00
2019-02-08T02:01:30.250Z,0.00
2019-02-08T02:02:30.226Z,0.00
2019-02-08T02:03:30.214Z,0.00
2019-02-08T02:04:30.234Z,0.00
2019-02-08T02:05:30.174Z,0.00
2019-02-08T02:06:30.150Z,0.00
2019-02-08T02:07:30.129Z,0.00
2019-02-08T02:08:30.113Z,0.00
2019-02-08T02:09:30.093Z,0.00
2019-02-08T02:10:30.074Z,0.00
2019-02-08T02:11:30.061Z,0.00
2019-02-08T02:12:30.035Z,0.00
2019-02-08T02:13:30.018Z,0.00
2019-02-08T02:14:29.998Z,0.00
2019-02-08T02:15:29.978Z,0.00
2019-02-08T02:16:29.959Z,0.00
2019-02-08T02:17:29.941Z,0.00
2019-02-08T02:18:29.920Z,0.00
2019-02-08T02:19:29.911Z,0.00
2019-02-08T02:20:29.884Z,0.00
2019-02-08T02:21:29.863Z,0.00
2019-02-08T02:22:29.845Z,0.00
2019-02-08T02:23:29.823Z,0.00
2019-02-08T02:24:29.817Z,0.00
2019-02-08T02:25:29.789Z,0.00
2019-02-08T02:26:29.768Z,0.00
2019-02-08T02:27:29.750Z,0.00
2019-02-08T02:28:29.725Z,0.00
2019-02-08T02:29:29.710Z,0.00
2019-02-08T02:30:29.692Z,0.00
2019-02-08T02:31:29.685Z,0.00
2019-02-08T02:32:29.662Z,0.00
2019-02-08T02:33:29.634Z,0.00
2019-02-08T02:34:29.619Z,0.00
2019-02-08T02:35:29.603Z,0.00
2019-02-08T02:36:29.584Z,0.00
2019-02-08T02:37:29.559Z,0.00
2019-02-08T02:38:29.541Z,0.00
2019-02-08T02:39:29.520Z,0.00
2019-02-08T02:40:29.501Z,0.00
2019-02-08T02:41:29.488Z,0.00
2019-02-08T02:42:29.459Z,0.00
2019-02-08T02:43:29.445Z,0.00
2019-02-08T02:44:29.426Z,0.00
2019-02-08T02:45:29.404Z,0.00
2019-02-08T02:46:29.399Z,0.00
2019-02-08T02:47:29.365Z,0.00
2019-02-08T02:48:29.348Z,0.00
2019-02-08T02:49:29.332Z,0.00
2019-02-08T02:50:29.311Z,0.00
2019-02-08T02:51:29.291Z,0.00
2019-02-08T02:52:29.281Z,0.00
2019-02-08T02:53:29.252Z,0.00
2019-02-08T02:54:29.233Z,0.00
2019-02-08T02:55:29.230Z,0.00
2019-02-08T02:56:29.208Z,0.00
2019-02-08T02:57:29.188Z,0.00
2019-02-08T02:58:29.158Z,0.00
2019-02-08T02:59:29.137Z,0.00
2019-02-08T03:00:29.121Z,0.00
2019-02-08T03:01:29.094Z,0.00
2019-02-08T03:02:29.082Z,0.00
2019-02-08T03:03:30.745Z,0.00
2019-02-08T03:04:29.039Z,0.00
2019-02-08T03:05:29.022Z,0.00
2019-02-08T03:06:29.004Z,0.00
2019-02-08T03:07:28.995Z,0.00
2019-02-08T03:08:28.964Z,0.00
2019-02-08T03:09:28.944Z,0.00
2019-02-08T03:10:28.930Z,0.00
2019-02-08T03:11:28.909Z,0.00
2019-02-08T03:12:28.886Z,0.00
2019-02-08T03:13:28.867Z,0.00
2019-02-08T03:14:28.846Z,0.00
2019-02-08T03:15:28.832Z,0.00
2019-02-08T03:16:28.819Z,0.00
2019-02-08T03:17:28.843Z,0.00
2019-02-08T03:18:28.777Z,0.00
2019-02-08T03:19:28.751Z,0.00
2019-02-08T03:20:28.734Z,0.00
2019-02-08T03:21:28.720Z,0.00
2019-02-08T03:22:28.695Z,0.00
2019-02-08T03:23:28.679Z,0.00
2019-02-08T03:24:28.657Z,0.00
2019-02-08T03:25:30.249Z,0.00
2019-02-08T03:26:28.621Z,0.00
2019-02-08T03:27:28.597Z,0.00
2019-02-08T03:28:28.587Z,0.00
2019-02-08T03:29:28.564Z,0.00
2019-02-08T03:30:28.543Z,0.00
2019-02-08T03:31:28.526Z,0.00
2019-02-08T03:32:28.601Z,0.00
2019-02-08T03:33:28.493Z,0.00
2019-02-08T03:34:28.467Z,0.00
2019-02-08T03:35:28.457Z,0.00
2019-02-08T03:36:28.430Z,0.00
2019-02-08T03:37:28.416Z,0.00
2019-02-08T03:38:28.394Z,0.00
2019-02-08T03:39:28.371Z,0.00
2019-02-08T03:40:28.347Z,0.00
2019-02-08T03:41:28.335Z,0.00
2019-02-08T03:42:28.314Z,0.00
2019-02-08T03:43:28.305Z,0.00
2019-02-08T03:44:28.274Z,0.00
2019-02-08T03:45:28.254Z,0.00
2019-02-08T03:46:28.242Z,0.00
2019-02-08T03:47:28.221Z,0.00
2019-02-08T03:48:28.195Z,0.00
2019-02-08T03:49:28.176Z,0.00
2019-02-08T03:50:28.171Z,0.00
2019-02-08T03:51:28.139Z,0.00
2019-02-08T03:52:28.155Z,0.00
2019-02-08T03:53:28.104Z,0.00
2019-02-08T03:54:28.083Z,0.00
2019-02-08T03:55:28.068Z,0.00
2019-02-08T03:56:28.045Z,0.00
2019-02-08T03:57:28.027Z,0.00
2019-02-08T03:58:28.005Z,0.00
2019-02-08T03:59:27.990Z,0.00
2019-02-08T04:00:27.978Z,0.00
2019-02-08T04:01:27.950Z,0.00
2019-02-08T04:02:27.927Z,0.00
2019-02-08T04:03:27.926Z,0.00
2019-02-08T04:04:27.909Z,0.00
2019-02-08T04:05:27.889Z,0.00
2019-02-08T04:06:27.855Z,0.00
2019-02-08T04:07:27.835Z,0.00
2019-02-08T04:08:27.810Z,0.00
2019-02-08T04:09:27.793Z,0.00
2019-02-08T04:10:27.778Z,0.00
2019-02-08T04:11:27.754Z,0.00
2019-02-08T04:12:27.736Z,0.00
2019-02-08T04:13:27.717Z,0.00
2019-02-08T04:14:27.710Z,0.00
2019-02-08T04:15:27.679Z,0.00
2019-02-08T04:16:27.670Z,0.00
2019-02-08T04:17:27.643Z,0.00
2019-02-08T04:18:27.618Z,0.00
2019-02-08T04:19:27.605Z,0.00
2019-02-08T04:20:27.584Z,0.00
2019-02-08T04:21:27.566Z,0.00
2019-02-08T04:22:27.544Z,0.00
2019-02-08T04:23:27.529Z,0.00
2019-02-08T04:24:30.058Z,0.00
2019-02-08T04:25:27.494Z,0.00
2019-02-08T04:26:27.471Z,0.00
2019-02-08T04:27:27.448Z,0.00
2019-02-08T04:28:27.430Z,0.00
2019-02-08T04:29:27.413Z,0.00
2019-02-08T04:30:27.394Z,0.00
2019-02-08T04:31:27.369Z,0.00
2019-02-08T04:32:29.257Z,0.00
2019-02-08T04:33:27.333Z,0.00
2019-02-08T04:34:27.310Z,0.00
2019-02-08T04:35:27.311Z,0.00
2019-02-08T04:36:27.282Z,0.00
2019-02-08T04:37:27.256Z,0.00
2019-02-08T04:38:27.236Z,0.00
2019-02-08T04:39:27.223Z,0.00
2019-02-08T04:40:27.391Z,0.00
2019-02-08T04:41:28.771Z,0.00
2019-02-08T04:42:35.175Z,0.00
2019-02-08T04:43:27.135Z,0.00
2019-02-08T04:44:27.115Z,0.00
2019-02-08T04:45:27.117Z,0.00
2019-02-08T04:46:27.076Z,0.00
2019-02-08T04:47:27.076Z,0.00
2019-02-08T04:48:28.756Z,0.00
2019-02-08T04:49:27.025Z,0.00
2019-02-08T04:50:27.108Z,0.00
2019-02-08T04:51:26.987Z,0.00
2019-02-08T04:52:26.979Z,0.00
2019-02-08T04:53:26.952Z,0.00
2019-02-08T04:54:26.926Z,0.00
2019-02-08T04:55:26.911Z,0.00
2019-02-08T04:56:26.886Z,0.00
2019-02-08T04:57:26.920Z,0.00
2019-02-08T04:58:35.177Z,0.00
2019-02-08T04:59:26.845Z,0.00
2019-02-08T05:00:26.828Z,0.00
2019-02-08T05:01:26.804Z,0.00
2019-02-08T05:02:26.773Z,0.00
2019-02-08T05:03:26.758Z,0.00
2019-02-08T05:04:26.738Z,0.00
2019-02-08T05:05:26.717Z,0.00
2019-02-08T05:06:26.698Z,0.00
2019-02-08T05:07:26.688Z,0.00
2019-02-08T05:08:26.662Z,0.00
2019-02-08T05:09:26.638Z,0.00
2019-02-08T05:10:26.625Z,0.00
2019-02-08T05:11:26.600Z,0.00
2019-02-08T05:12:26.580Z,0.00
2019-02-08T05:13:26.562Z,0.00
2019-02-08T05:14:26.556Z,0.00
2019-02-08T05:15:26.521Z,0.00
2019-02-08T05:16:26.505Z,0.00
2019-02-08T05:17:26.489Z,0.00
2019-02-08T05:18:26.469Z,0.00
2019-02-08T05:19:26.459Z,0.00
2019-02-08T05:20:26.427Z,0.00
2019-02-08T05:21:26.410Z,0.00
2019-02-08T05:22:26.391Z,0.00
2019-02-08T05:23:26.371Z,0.00
2019-02-08T05:24:26.357Z,0.00
2019-02-08T05:25:26.331Z,0.00
2019-02-08T05:26:26.316Z,0.00
2019-02-08T05:27:26.298Z,0.00
2019-02-08T05:28:26.272Z,0.00
2019-02-08T05:29:26.257Z,0.00
2019-02-08T05:30:26.239Z,0.00
2019-02-08T05:31:26.216Z,0.00
2019-02-08T05:32:26.202Z,0.00
2019-02-08T05:33:26.175Z,0.00
2019-02-08T05:34:26.160Z,0.00
2019-02-08T05:35:26.140Z,0.00
2019-02-08T05:36:26.158Z,0.00
2019-02-08T05:37:26.107Z,0.00
2019-02-08T05:38:26.082Z,0.00
2019-02-08T05:39:26.078Z,0.00
2019-02-08T05:40:26.046Z,0.00
2019-02-08T05:41:26.026Z,0.00
2019-02-08T05:42:26.010Z,0.00
2019-02-08T05:43:25.986Z,0.00
2019-02-08T05:44:25.969Z,0.00
2019-02-08T05:45:25.965Z,0.00
2019-02-08T05:46:25.932Z,0.00
2019-02-08T05:47:25.913Z,0.00
2019-02-08T05:48:25.892Z,0.00
2019-02-08T05:49:25.875Z,0.00
2019-02-08T05:50:25.869Z,0.00
2019-02-08T05:51:25.849Z,0.00
2019-02-08T05:52:25.830Z,0.00
2019-02-08T05:53:25.802Z,0.00
2019-02-08T05:54:25.776Z,0.00
2019-02-08T05:55:25.763Z,0.00
2019-02-08T05:56:25.740Z,0.00
2019-02-08T05:57:25.721Z,0.00
2019-02-08T05:58:25.701Z,0.00
2019-02-08T05:59:25.693Z,0.00
2019-02-08T06:00:25.662Z,0.00
2019-02-08T06:01:25.644Z,0.00
2019-02-08T06:02:25.627Z,0.00
2019-02-08T06:03:25.606Z,0.00
2019-02-08T06:04:25.586Z,0.00
2019-02-08T06:05:25.576Z,0.00
2019-02-08T06:06:25.551Z,0.00
2019-02-08T06:07:25.527Z,0.00
2019-02-08T06:08:25.515Z,0.00
2019-02-08T06:09:25.498Z,0.00
2019-02-08T06:10:25.476Z,0.00
2019-02-08T06:11:25.454Z,0.00
2019-02-08T06:12:25.432Z,0.00
2019-02-08T06:13:25.420Z,0.00
2019-02-08T06:14:25.401Z,0.00
2019-02-08T06:15:25.374Z,0.00
2019-02-08T06:16:25.358Z,0.00
2019-02-08T06:17:25.337Z,0.00
2019-02-08T06:18:25.320Z,0.00
2019-02-08T06:19:25.308Z,0.00
2019-02-08T06:20:25.314Z,0.00
2019-02-08T06:21:25.269Z,0.00
2019-02-08T06:22:25.245Z,0.00
2019-02-08T06:23:25.230Z,0.00
2019-02-08T06:24:25.208Z,0.00
2019-02-08T06:25:25.205Z,0.00
2019-02-08T06:26:25.179Z,0.00
2019-02-08T06:27:25.176Z,0.00
2019-02-08T06:28:25.129Z,0.00
2019-02-08T06:29:25.110Z,0.00
2019-02-08T06:30:25.104Z,4.00
2019-02-08T06:31:25.072Z,4.00
2019-02-08T06:32:25.049Z,0.00
2019-02-08T06:33:25.036Z,0.00
2019-02-08T06:34:25.035Z,4.00
2019-02-08T06:35:24.993Z,4.00
2019-02-08T06:36:24.976Z,4.00
2019-02-08T06:37:24.967Z,4.00
2019-02-08T06:38:24.934Z,4.00
2019-02-08T06:39:24.919Z,8.00
2019-02-08T06:40:24.901Z,8.00
2019-02-08T06:41:24.885Z,8.00
2019-02-08T06:42:24.863Z,12.00
2019-02-08T06:43:24.839Z,12.00
2019-02-08T06:44:24.823Z,12.00
2019-02-08T06:45:24.808Z,16.00
2019-02-08T06:46:24.787Z,20.00
2019-02-08T06:47:24.765Z,16.00
2019-02-08T06:48:24.744Z,16.00
2019-02-08T06:49:24.729Z,16.00
2019-02-08T06:50:24.720Z,16.00
2019-02-08T06:51:24.710Z,16.00
2019-02-08T06:52:24.669Z,16.00
2019-02-08T06:53:24.649Z,20.00
2019-02-08T06:54:24.633Z,20.00
2019-02-08T06:55:24.607Z,20.00
2019-02-08T06:56:24.604Z,24.00
2019-02-08T06:57:24.571Z,28.00
2019-02-08T06:58:24.555Z,28.00
2019-02-08T06:59:24.533Z,28.00
2019-02-08T07:00:24.517Z,24.00
2019-02-08T07:01:24.498Z,28.00
2019-02-08T07:02:24.498Z,24.00
2019-02-08T07:03:24.458Z,28.00
2019-02-08T07:04:24.444Z,28.00
2019-02-08T07:05:24.420Z,28.00
2019-02-08T07:06:24.406Z,32.00
2019-02-08T07:07:24.382Z,32.00
2019-02-08T07:08:24.367Z,36.00
2019-02-08T07:09:24.371Z,36.00
2019-02-08T07:10:24.326Z,40.00
2019-02-08T07:11:24.304Z,40.00
2019-02-08T07:12:24.284Z,44.00
2019-02-08T07:13:24.271Z,48.00
2019-02-08T07:14:24.246Z,48.00
2019-02-08T07:15:24.232Z,44.00
2019-02-08T07:16:24.217Z,40.00
2019-02-08T07:17:24.204Z,48.00
2019-02-08T07:18:24.176Z,56.00
2019-02-08T07:19:24.160Z,68.00
2019-02-08T07:20:24.136Z,72.00
2019-02-08T07:21:24.110Z,72.00
2019-02-08T07:22:24.096Z,72.00
2019-02-08T07:23:24.075Z,76.00
2019-02-08T07:24:24.057Z,92.00
2019-02-08T07:25:24.046Z,116.00
2019-02-08T07:26:24.013Z,136.00
2019-02-08T07:27:24.000Z,140.00
2019-02-08T07:28:23.982Z,148.00
2019-02-08T07:29:23.961Z,152.00
2019-02-08T07:30:23.938Z,168.00
2019-02-08T07:31:23.926Z,184.00
2019-02-08T07:32:23.904Z,204.00
2019-02-08T07:33:23.887Z,240.00
2019-02-08T07:34:23.867Z,284.00
2019-02-08T07:35:23.856Z,300.00
2019-02-08T07:36:23.826Z,312.00
2019-02-08T07:37:23.824Z,336.00
2019-02-08T07:38:23.790Z,348.00
2019-02-08T07:39:23.771Z,368.00
2019-02-08T07:40:23.754Z,388.00
2019-02-08T07:41:23.739Z,396.00
2019-02-08T07:42:23.711Z,416.00
2019-02-08T07:43:23.694Z,416.00
2019-02-08T07:44:23.676Z,420.00
2019-02-08T07:45:23.660Z,452.00
2019-02-08T07:46:23.643Z,500.00
2019-02-08T07:47:23.625Z,528.00
2019-02-08T07:48:23.601Z,556.00
2019-02-08T07:49:23.582Z,584.00
2019-02-08T07:50:23.562Z,612.00
2019-02-08T07:51:23.546Z,668.00
2019-02-08T07:52:23.521Z,716.00
2019-02-08T07:53:23.504Z,752.00
2019-02-08T07:54:23.486Z,744.00
2019-02-08T07:55:26.113Z,792.00
2019-02-08T07:56:23.456Z,864.00
2019-02-08T07:57:23.437Z,896.00
2019-02-08T07:58:23.410Z,908.00
2019-02-08T07:59:23.397Z,980.00
2019-02-08T08:00:23.373Z,1040.00
2019-02-08T08:01:23.363Z,1156.00
2019-02-08T08:02:23.337Z,2072.00
2019-02-08T08:03:23.325Z,1440.00
2019-02-08T08:04:23.298Z,1352.00
2019-02-08T08:05:23.280Z,2192.00
2019-02-08T08:06:23.262Z,1980.00
2019-02-08T08:07:23.242Z,2264.00
2019-02-08T08:08:23.227Z,2296.00
2019-02-08T08:09:23.204Z,2352.00
2019-02-08T08:10:23.186Z,2208.00
2019-02-08T08:11:23.168Z,2312.00
2019-02-08T08:12:23.154Z,2352.00
2019-02-08T08:13:23.134Z,2484.00
2019-02-08T08:14:23.110Z,2100.00
2019-02-08T08:15:23.097Z,1976.00
2019-02-08T08:16:23.074Z,1712.00
2019-02-08T08:17:23.063Z,2076.00
2019-02-08T08:18:23.039Z,1724.00
2019-02-08T08:19:23.022Z,2276.00
2019-02-08T08:20:22.994Z,1568.00
2019-02-08T08:21:22.984Z,1644.00
2019-02-08T08:22:22.972Z,2104.00
2019-02-08T08:23:22.947Z,1560.00
2019-02-08T08:24:22.928Z,1444.00
2019-02-08T08:25:22.922Z,1476.00
2019-02-08T08:26:22.890Z,1384.00
2019-02-08T08:27:22.874Z,1944.00
2019-02-08T08:28:22.860Z,1628.00
2019-02-08T08:29:22.835Z,1388.00
2019-02-08T08:30:22.822Z,1432.00
2019-02-08T08:31:22.800Z,1516.00
2019-02-08T08:32:22.784Z,1888.00
2019-02-08T08:33:22.799Z,1708.00
2019-02-08T08:34:22.754Z,2344.00
2019-02-08T08:35:22.725Z,1804.00
2019-02-08T08:36:22.732Z,1808.00
2019-02-08T08:37:22.692Z,1924.00
2019-02-08T08:38:22.673Z,2992.00
2019-02-08T08:39:22.659Z,2528.00
2019-02-08T08:40:22.637Z,2516.00
2019-02-08T08:41:22.618Z,2060.00
2019-02-08T08:42:22.601Z,2972.00
2019-02-08T08:43:22.583Z,3120.00
2019-02-08T08:44:22.566Z,3860.00
2019-02-08T08:45:22.552Z,2332.00
2019-02-08T08:46:22.527Z,2884.00
2019-02-08T08:47:22.515Z,1976.00
2019-02-08T08:48:22.492Z,1472.00
2019-02-08T08:49:22.476Z,1164.00
2019-02-08T08:50:22.458Z,1368.00
2019-02-08T08:51:22.443Z,1084.00
2019-02-08T08:52:22.420Z,1012.00
2019-02-08T08:53:22.409Z,948.00
2019-02-08T08:54:22.387Z,916.00
2019-02-08T08:55:22.369Z,916.00
2019-02-08T08:56:22.351Z,996.00
2019-02-08T08:57:22.341Z,1048.00
2019-02-08T08:58:22.312Z,1040.00
2019-02-08T08:59:22.300Z,1036.00
2019-02-08T09:00:22.279Z,992.00
2019-02-08T09:01:22.271Z,980.00
2019-02-08T09:02:23.791Z,996.00
2019-02-08T09:03:22.225Z,1052.00
2019-02-08T09:04:22.217Z,1060.00
2019-02-08T09:05:22.189Z,1096.00
2019-02-08T09:06:22.179Z,1128.00
2019-02-08T09:07:22.160Z,1128.00
2019-02-08T09:08:22.148Z,1112.00
2019-02-08T09:09:22.120Z,1096.00
2019-02-08T09:10:22.100Z,1052.00
2019-02-08T09:11:22.084Z,1072.00
2019-02-08T09:12:22.063Z,1080.00
2019-02-08T09:13:22.049Z,1076.00
2019-02-08T09:14:22.038Z,1088.00
2019-02-08T09:15:22.015Z,1116.00
2019-02-08T09:16:21.990Z,1120.00
2019-02-08T09:17:21.973Z,1188.00
2019-02-08T09:18:21.974Z,1220.00
2019-02-08T09:19:21.936Z,1272.00
2019-02-08T09:20:21.925Z,1388.00
2019-02-08T09:21:21.903Z,1464.00
2019-02-08T09:22:21.882Z,1468.00
2019-02-08T09:23:21.866Z,1480.00
2019-02-08T09:24:21.848Z,1460.00
2019-02-08T09:25:21.832Z,1512.00
2019-02-08T09:26:22.190Z,1600.00
2019-02-08T09:27:21.801Z,1620.00
2019-02-08T09:28:21.775Z,1556.00
2019-02-08T09:29:21.763Z,1628.00
2019-02-08T09:30:21.738Z,1752.00
2019-02-08T09:31:21.721Z,2108.00
2019-02-08T09:32:21.702Z,2440.00
2019-02-08T09:33:21.691Z,2440.00
2019-02-08T09:34:21.662Z,1992.00
2019-02-08T09:35:21.645Z,1864.00
2019-02-08T09:36:21.636Z,1988.00
2019-02-08T09:37:21.612Z,2080.00
2019-02-08T09:38:21.596Z,2356.00
2019-02-08T09:39:21.578Z,2328.00
2019-02-08T09:40:21.562Z,2184.00
2019-02-08T09:41:21.546Z,2148.00
2019-02-08T09:42:21.538Z,2036.00
2019-02-08T09:43:21.506Z,2520.00
2019-02-08T09:44:21.491Z,2676.00
2019-02-08T09:45:21.474Z,2868.00
2019-02-08T09:46:21.448Z,3160.00
2019-02-08T09:47:21.439Z,2400.00
2019-02-08T09:48:21.419Z,2596.00
2019-02-08T09:49:21.401Z,2564.00
2019-02-08T09:50:21.386Z,6580.00
2019-02-08T09:51:21.366Z,2592.00
2019-02-08T09:52:21.343Z,2412.00
2019-02-08T09:53:21.338Z,2192.00
2019-02-08T09:54:21.316Z,3316.00
2019-02-08T09:55:21.294Z,3208.00
2019-02-08T09:56:21.275Z,3124.00
2019-02-08T09:57:21.260Z,5724.00
2019-02-08T09:58:21.246Z,5360.00
2019-02-08T09:59:21.226Z,2720.00
2019-02-08T10:00:21.211Z,2480.00
2019-02-08T10:01:21.192Z,2620.00
2019-02-08T10:02:21.176Z,2672.00
2019-02-08T10:03:21.150Z,2640.00
2019-02-08T10:04:21.139Z,2616.00
2019-02-08T10:05:21.121Z,2972.00
2019-02-08T10:06:21.101Z,6072.00
2019-02-08T10:07:21.086Z,4180.00
2019-02-08T10:08:21.978Z,3208.00
2019-02-08T10:09:21.048Z,7036.00
2019-02-08T10:10:21.040Z,4352.00
2019-02-08T10:11:21.021Z,3868.00
2019-02-08T10:12:21.041Z,3180.00
2019-02-08T10:13:20.986Z,3780.00
2019-02-08T10:14:20.965Z,2736.00
2019-02-08T10:15:20.956Z,2812.00
2019-02-08T10:16:20.939Z,2888.00
2019-02-08T10:17:20.925Z,3016.00
2019-02-08T10:18:20.901Z,3052.00
2019-02-08T10:19:20.887Z,3292.00
2019-02-08T10:20:20.869Z,3200.00
2019-02-08T10:21:20.846Z,2984.00
2019-02-08T10:22:20.828Z,2900.00
2019-02-08T10:23:20.810Z,2924.00
2019-02-08T10:24:20.802Z,3260.00
2019-02-08T10:25:20.778Z,5172.00
2019-02-08T10:26:20.763Z,3312.00
2019-02-08T10:27:20.745Z,3260.00
2019-02-08T10:28:20.729Z,3728.00
2019-02-08T10:29:20.711Z,3592.00
2019-02-08T10:30:20.694Z,3416.00
2019-02-08T10:31:22.306Z,3284.00
2019-02-08T10:32:20.668Z,3732.00
2019-02-08T10:33:20.647Z,3564.00
2019-02-08T10:34:20.625Z,3340.00
2019-02-08T10:35:20.621Z,3108.00
2019-02-08T10:36:20.594Z,3244.00
2019-02-08T10:37:20.590Z,4004.00
2019-02-08T10:38:20.569Z,3568.00
2019-02-08T10:39:20.543Z,4636.00
2019-02-08T10:40:20.525Z,3408.00
2019-02-08T10:41:20.515Z,7236.00
2019-02-08T10:42:20.499Z,3296.00
2019-02-08T10:43:20.476Z,3944.00
2019-02-08T10:44:20.466Z,2556.00
2019-02-08T10:45:20.440Z,3496.00
2019-02-08T10:46:20.426Z,4412.00
2019-02-08T10:47:20.419Z,2796.00
2019-02-08T10:48:20.392Z,4060.00
2019-02-08T10:49:20.384Z,9152.00
2019-02-08T10:50:20.374Z,8944.00
2019-02-08T10:51:20.339Z,9208.00
2019-02-08T10:52:20.326Z,9272.00
2019-02-08T10:53:20.315Z,9344.00
2019-02-08T10:54:20.293Z,9400.00
2019-02-08T10:55:20.281Z,9368.00
2019-02-08T10:56:20.269Z,5880.00
2019-02-08T10:57:20.245Z,9896.00
2019-02-08T10:58:20.227Z,8920.00
2019-02-08T10:59:20.216Z,5456.00
2019-02-08T11:00:20.195Z,4132.00
2019-02-08T11:01:20.184Z,4072.00
2019-02-08T11:02:20.173Z,4348.00
2019-02-08T11:03:20.145Z,4224.00
2019-02-08T11:04:20.133Z,4796.00
2019-02-08T11:05:20.116Z,3428.00
2019-02-08T11:06:20.104Z,3172.00
2019-02-08T11:07:27.485Z,3032.00
2019-02-08T11:08:20.079Z,4476.00
2019-02-08T11:09:20.054Z,4696.00
2019-02-08T11:10:20.036Z,6392.00
2019-02-08T11:11:20.022Z,9516.00
2019-02-08T11:12:20.006Z,4588.00
2019-02-08T11:13:19.988Z,5132.00
2019-02-08T11:14:19.972Z,4956.00
2019-02-08T11:15:19.959Z,5700.00
2019-02-08T11:16:19.946Z,6820.00
2019-02-08T11:17:19.929Z,7364.00
2019-02-08T11:18:19.920Z,3924.00
2019-02-08T11:19:19.896Z,5544.00
2019-02-08T11:20:19.887Z,5096.00
2019-02-08T11:21:19.870Z,7084.00
2019-02-08T11:22:19.847Z,6044.00
2019-02-08T11:23:19.839Z,4348.00
2019-02-08T11:24:19.812Z,6804.00
2019-02-08T11:25:19.796Z,4280.00
2019-02-08T11:26:23.054Z,6676.00
2019-02-08T11:27:19.773Z,4568.00
2019-02-08T11:28:19.754Z,5124.00
2019-02-08T11:29:19.740Z,8040.00
2019-02-08T11:30:19.725Z,4056.00
2019-02-08T11:31:19.708Z,7928.00
2019-02-08T11:32:19.690Z,3668.00
2019-02-08T11:33:19.685Z,3848.00
2019-02-08T11:34:19.667Z,3156.00
2019-02-08T11:35:19.648Z,5000.00
2019-02-08T11:36:19.630Z,4440.00
2019-02-08T11:37:19.618Z,4092.00
2019-02-08T11:38:19.601Z,3788.00
2019-02-08T11:39:19.588Z,3780.00
2019-02-08T11:40:19.580Z,4836.00
2019-02-08T11:41:19.552Z,4892.00
2019-02-08T11:42:19.536Z,7700.00
2019-02-08T11:43:19.520Z,4832.00
2019-02-08T11:44:19.506Z,4820.00
2019-02-08T11:45:19.494Z,4528.00
2019-02-08T11:46:19.477Z,4884.00
2019-02-08T11:47:19.459Z,4176.00
2019-02-08T11:48:19.443Z,5008.00
2019-02-08T11:49:19.483Z,6168.00
2019-02-08T11:50:19.411Z,4824.00
2019-02-08T11:51:19.397Z,5332.00
2019-02-08T11:52:19.381Z,4776.00
2019-02-08T11:53:19.371Z,4976.00
2019-02-08T11:54:19.349Z,7128.00
2019-02-08T11:55:19.331Z,6456.00
2019-02-08T11:56:19.320Z,7340.00
2019-02-08T11:57:19.303Z,7256.00
2019-02-08T11:58:19.304Z,7436.00
2019-02-08T11:59:19.283Z,6752.00
2019-02-08T12:00:19.254Z,3440.00
2019-02-08T12:01:19.240Z,3316.00
2019-02-08T12:02:19.223Z,3284.00
2019-02-08T12:03:19.204Z,3400.00
2019-02-08T12:04:19.191Z,3512.00
2019-02-08T12:05:19.191Z,3720.00
2019-02-08T12:06:19.172Z,4044.00
2019-02-08T12:07:19.160Z,4464.00
2019-02-08T12:08:19.138Z,4288.00
2019-02-08T12:09:19.118Z,4176.00
2019-02-08T12:10:19.096Z,4892.00
2019-02-08T12:11:19.082Z,5232.00
2019-02-08T12:12:19.074Z,4968.00
2019-02-08T12:13:19.053Z,4472.00
2019-02-08T12:14:19.040Z,4240.00
2019-02-08T12:15:19.041Z,4528.00
2019-02-08T12:16:19.010Z,4292.00
2019-02-08T12:17:18.993Z,4144.00
2019-02-08T12:18:18.975Z,4060.00
2019-02-08T12:19:18.960Z,4136.00
2019-02-08T12:20:18.949Z,4596.00
2019-02-08T12:21:18.965Z,5088.00
2019-02-08T12:22:18.916Z,4876.00
2019-02-08T12:23:18.892Z,4684.00
2019-02-08T12:24:18.881Z,4288.00
2019-02-08T12:25:18.882Z,4372.00
2019-02-08T12:26:18.853Z,5716.00
2019-02-08T12:27:18.833Z,4932.00
2019-02-08T12:28:18.820Z,4572.00
2019-02-08T12:29:18.800Z,3520.00
2019-02-08T12:30:18.784Z,3284.00
2019-02-08T12:31:18.778Z,3144.00
2019-02-08T12:32:18.756Z,2784.00
2019-02-08T12:33:18.745Z,2648.00
2019-02-08T12:34:18.721Z,2484.00
2019-02-08T12:35:18.719Z,2468.00
2019-02-08T12:36:18.693Z,2512.00
2019-02-08T12:37:18.680Z,2568.00
2019-02-08T12:38:18.661Z,2732.00
2019-02-08T12:39:18.651Z,2448.00
2019-02-08T12:40:18.661Z,2300.00
2019-02-08T12:41:18.612Z,2336.00
2019-02-08T12:42:18.590Z,2536.00
2019-02-08T12:43:18.591Z,2608.00
2019-02-08T12:44:18.570Z,2340.00
2019-02-08T12:45:19.568Z,2192.00
2019-02-08T12:46:18.531Z,1912.00